Time;durP1;ratioP1;P1;durP2;ratioP2;P2;SDS_P1;SDS_P2;PMS_P1;PMS_P2;Temp;Humidity;BMP_temperature;BMP_pressure;BME280_temperature;BME280_humidity;BME280_pressure;Samples;Min_cycle;Max_cycle;Signal;HPM_P1;HPM_P2
2022/01/04 00:01:24;;;;;;;2.60;0.98;;;;;;;7.61;100.00;94909.50;5093008;28;24985;-80
2022/01/04 00:03:51;;;;;;;1.60;0.80;;;;;;;7.60;100.00;94912.16;5093433;28;24426;-78
2022/01/04 00:06:17;;;;;;;2.53;1.00;;;;;;;7.64;100.00;94913.59;5093123;28;24502;-80
2022/01/04 00:08:44;;;;;;;1.40;0.73;;;;;;;7.60;100.00;94901.84;5093437;28;20809;-78
2022/01/04 00:11:16;;;;;;;2.33;1.00;;;;;;;7.56;100.00;94900.38;5093075;28;24406;-79
2022/01/04 00:13:43;;;;;;;2.50;1.00;;;;;;;7.59;100.00;94887.31;5093244;28;20774;-80
2022/01/04 00:16:12;;;;;;;2.83;0.70;;;;;;;7.56;100.00;94875.44;5092953;28;20767;-80
2022/01/04 00:18:39;;;;;;;1.35;0.80;;;;;;;7.54;100.00;94873.91;5092886;28;20896;-80
2022/01/04 00:21:06;;;;;;;3.03;0.80;;;;;;;7.54;100.00;94868.75;5093329;28;20767;-79
2022/01/04 00:23:33;;;;;;;1.50;0.73;;;;;;;7.59;100.00;94859.78;5093354;28;20759;-78
2022/01/04 00:25:59;;;;;;;1.40;0.75;;;;;;;7.54;100.00;94858.44;5095674;28;20760;-78
2022/01/04 00:28:27;;;;;;;2.22;0.95;;;;;;;7.52;100.00;94846.47;5097669;28;24771;-79
2022/01/04 00:30:53;;;;;;;2.22;0.90;;;;;;;7.56;100.00;94846.28;5098221;28;20831;-78
2022/01/04 00:33:21;;;;;;;4.05;1.00;;;;;;;7.53;100.00;94839.59;5097124;28;24417;-79
2022/01/04 00:35:47;;;;;;;1.80;0.88;;;;;;;7.57;100.00;94837.66;5097419;28;20804;-79
2022/01/04 00:38:14;;;;;;;2.13;1.05;;;;;;;7.54;100.00;94843.00;5097340;28;20796;-78
2022/01/04 00:40:40;;;;;;;2.00;0.80;;;;;;;7.51;100.00;94825.97;5097320;28;20760;-78
2022/01/04 00:43:07;;;;;;;2.53;1.10;;;;;;;7.45;100.00;94818.63;5096914;28;20768;-78
2022/01/04 00:45:36;;;;;;;1.23;0.87;;;;;;;7.48;100.00;94814.09;5096974;28;24435;-79
2022/01/04 00:50:49;;;;;;;2.35;1.00;;;;;;;7.51;100.00;94813.09;5096825;28;24767;-78
2022/01/04 00:53:16;;;;;;;2.05;0.88;;;;;;;7.48;100.00;94813.28;5100619;28;24471;-78
2022/01/04 00:55:42;;;;;;;1.63;0.68;;;;;;;7.52;100.00;94810.41;5100411;28;24441;-78
2022/01/04 00:58:09;;;;;;;1.73;0.95;;;;;;;7.50;100.00;94798.56;5100233;28;24457;-79
2022/01/04 01:00:36;;;;;;;1.65;0.75;;;;;;;7.50;100.00;94781.34;5096543;28;24429;-78
2022/01/04 01:03:03;;;;;;;1.80;0.80;;;;;;;7.56;100.00;94789.59;5095871;28;24410;-78
2022/01/04 01:05:29;;;;;;;1.83;0.90;;;;;;;7.54;100.00;94769.09;5095236;28;24883;-78
2022/01/04 01:07:57;;;;;;;1.40;0.80;;;;;;;7.49;100.00;94759.09;5095530;28;24437;-78
2022/01/04 01:10:42;;;;;;;2.63;0.85;;;;;;;7.47;100.00;94758.38;5095492;28;20762;-78
2022/01/04 01:13:08;;;;;;;1.73;0.77;;;;;;;7.47;100.00;94753.22;5095401;28;24433;-78
2022/01/04 01:15:36;;;;;;;1.30;0.80;;;;;;;7.45;100.00;94742.19;5095012;28;24434;-78
2022/01/04 01:18:03;;;;;;;1.93;1.10;;;;;;;7.47;100.00;94740.31;5095153;28;24513;-78
2022/01/04 01:20:30;;;;;;;1.40;0.80;;;;;;;7.45;100.00;94741.34;5095382;28;20862;-78
2022/01/04 01:22:58;;;;;;;1.73;0.80;;;;;;;7.45;100.00;94731.03;5095742;28;20896;-79
2022/01/04 01:25:25;;;;;;;1.52;1.00;;;;;;;7.47;100.00;94737.75;5095077;28;24837;-78
2022/01/04 01:27:51;;;;;;;1.80;0.88;;;;;;;7.55;100.00;94720.97;5095217;28;24422;-78
2022/01/04 01:30:18;;;;;;;1.95;0.90;;;;;;;7.51;100.00;94722.91;5095003;28;24422;-78
2022/01/04 01:32:45;;;;;;;1.90;0.90;;;;;;;7.50;100.00;94706.63;5095054;28;24418;-78
2022/01/04 01:35:11;;;;;;;1.48;0.80;;;;;;;7.46;100.00;94709.53;5095129;28;24974;-78
2022/01/04 01:37:38;;;;;;;1.65;0.80;;;;;;;7.46;100.00;94696.66;5094932;28;24438;-78
2022/01/04 01:40:07;;;;;;;1.48;0.80;;;;;;;7.43;100.00;94684.78;5095079;28;25180;-78
2022/01/04 01:42:33;;;;;;;0.88;0.60;;;;;;;7.43;100.00;94678.81;5094870;28;24413;-79
2022/01/04 01:45:00;;;;;;;2.05;1.10;;;;;;;7.44;100.00;94676.13;5094875;28;20779;-79
2022/01/04 01:47:26;;;;;;;1.30;0.70;;;;;;;7.42;100.00;94666.88;5094592;28;24433;-79
2022/01/04 01:49:53;;;;;;;1.40;0.70;;;;;;;7.38;100.00;94655.09;5094568;28;24460;-78
2022/01/04 01:52:19;;;;;;;0.70;0.65;;;;;;;7.38;100.00;94653.38;5095141;28;24418;-78
2022/01/04 01:54:46;;;;;;;2.55;0.85;;;;;;;7.43;100.00;94655.63;5095072;28;24813;-78
2022/01/04 01:57:13;;;;;;;1.58;0.70;;;;;;;7.41;100.00;94652.31;5094405;28;24430;-78
2022/01/04 01:59:40;;;;;;;1.30;0.90;;;;;;;7.38;100.00;94648.22;5094466;28;20812;-78
2022/01/04 02:02:07;;;;;;;3.42;1.00;;;;;;;7.36;100.00;94637.19;5094482;28;24433;-77
2022/01/04 02:04:33;;;;;;;1.30;0.70;;;;;;;7.34;100.00;94627.91;5093090;28;24429;-78
2022/01/04 02:06:59;;;;;;;3.08;0.95;;;;;;;7.36;100.00;94633.78;5092978;28;24421;-78
2022/01/04 02:09:28;;;;;;;1.70;0.90;;;;;;;7.33;100.00;94618.53;5093010;28;24435;-77
2022/01/04 02:11:54;;;;;;;1.45;0.75;;;;;;;7.39;100.00;94618.13;5092265;28;24989;-78
2022/01/04 02:14:24;;;;;;;1.00;0.70;;;;;;;7.43;100.00;94611.84;5092269;28;20846;-77
2022/01/04 02:16:50;;;;;;;1.33;0.90;;;;;;;7.48;100.00;94613.16;5091560;28;20786;-78
2022/01/04 02:19:17;;;;;;;1.40;0.93;;;;;;;7.48;100.00;94609.75;5092524;28;20779;-77
2022/01/04 02:21:45;;;;;;;0.93;0.82;;;;;;;7.53;100.00;94589.69;5092797;28;24529;-78
2022/01/04 02:24:11;;;;;;;1.85;1.20;;;;;;;7.54;100.00;94590.50;5092711;28;24425;-77
2022/01/04 02:26:40;;;;;;;1.53;1.00;;;;;;;7.61;100.00;94586.56;5092478;28;24422;-77
2022/01/04 02:29:07;;;;;;;1.20;0.85;;;;;;;7.64;100.00;94579.44;5092399;28;24480;-77
2022/01/04 02:31:34;;;;;;;2.75;1.00;;;;;;;7.76;100.00;94568.25;5092794;28;20794;-78
2022/01/04 02:34:00;;;;;;;4.60;1.20;;;;;;;7.81;100.00;94546.50;5092717;28;24426;-77
2022/01/04 02:36:27;;;;;;;1.63;0.82;;;;;;;7.83;100.00;94539.47;5092291;28;24421;-77
2022/01/04 02:38:55;;;;;;;4.47;1.00;;;;;;;7.88;100.00;94534.81;5092552;28;24458;-77
2022/01/04 02:41:21;;;;;;;2.38;1.30;;;;;;;7.92;100.00;94543.97;5091718;28;24446;-77
2022/01/04 02:43:48;;;;;;;2.15;1.10;;;;;;;7.91;100.00;94542.31;5092377;28;24471;-77
2022/01/04 02:46:14;;;;;;;2.95;1.33;;;;;;;7.88;100.00;94535.63;5092016;28;24429;-79
2022/01/04 02:48:43;;;;;;;1.55;1.15;;;;;;;7.84;100.00;94534.19;5090960;28;24825;-77
2022/01/04 02:51:09;;;;;;;2.20;1.20;;;;;;;7.90;100.00;94530.38;5091794;28;24886;-77
2022/01/04 02:53:36;;;;;;;2.28;1.10;;;;;;;7.97;100.00;94529.81;5092060;28;24479;-77
2022/01/04 02:56:04;;;;;;;1.40;1.10;;;;;;;7.99;100.00;94530.53;5091982;28;24425;-77
2022/01/04 02:58:30;;;;;;;2.47;1.30;;;;;;;7.98;100.00;94526.31;5091730;28;24430;-77
2022/01/04 03:00:57;;;;;;;1.70;1.20;;;;;;;7.91;100.00;94519.94;5091924;28;24426;-79
2022/01/04 03:03:23;;;;;;;3.90;1.45;;;;;;;7.86;100.00;94516.88;5091574;28;25028;-78
2022/01/04 03:05:50;;;;;;;1.40;1.10;;;;;;;7.87;100.00;94518.53;5091281;28;24977;-77
2022/01/04 03:08:16;;;;;;;2.15;1.33;;;;;;;7.85;100.00;94512.63;5091747;28;24434;-77
2022/01/04 03:10:43;;;;;;;5.28;1.20;;;;;;;7.90;100.00;94512.34;5071826;28;20770;-78
2022/01/04 03:13:10;;;;;;;2.30;1.20;;;;;;;7.87;100.00;94507.41;5071690;28;24427;-78
2022/01/04 03:15:37;;;;;;;1.90;1.33;;;;;;;7.82;100.00;94502.53;5071338;28;20772;-77
2022/01/04 03:18:04;;;;;;;2.20;1.30;;;;;;;7.78;100.00;94493.41;5071680;28;21281;-78
2022/01/04 03:20:30;;;;;;;1.80;0.97;;;;;;;7.78;100.00;94487.41;5071816;28;20782;-77
2022/01/04 03:22:57;;;;;;;1.98;1.30;;;;;;;7.77;100.00;94478.88;5071330;28;24427;-77
2022/01/04 03:25:23;;;;;;;1.63;1.20;;;;;;;7.76;100.00;94472.06;5071174;28;24430;-78
2022/01/04 03:27:50;;;;;;;3.70;1.10;;;;;;;7.76;100.00;94475.47;5071273;28;20770;-77
2022/01/04 03:30:18;;;;;;;1.73;1.10;;;;;;;7.82;100.00;94469.03;5071247;28;24515;-77
2022/01/04 03:32:44;;;;;;;2.00;0.93;;;;;;;7.87;100.00;94458.41;5071329;28;20791;-78
2022/01/04 03:35:11;;;;;;;2.13;0.98;;;;;;;7.80;100.00;94459.78;5071472;28;21149;-80
2022/01/04 03:37:38;;;;;;;1.10;0.90;;;;;;;7.79;100.00;94437.50;5073051;28;20772;-80
2022/01/04 03:40:06;;;;;;;2.00;1.10;;;;;;;7.81;100.00;94438.22;5072897;28;24438;-79
2022/01/04 03:42:32;;;;;;;1.98;1.27;;;;;;;7.81;100.00;94431.31;5073252;28;24810;-79
2022/01/04 03:44:59;;;;;;;1.63;0.90;;;;;;;7.79;100.00;94429.78;5073119;28;20761;-81
2022/01/04 03:47:27;;;;;;;1.10;0.90;;;;;;;7.76;100.00;94423.94;5079282;28;24480;-80
2022/01/04 03:49:53;;;;;;;2.00;1.00;;;;;;;7.79;100.00;94427.19;5085416;28;20818;-81
2022/01/04 03:52:19;;;;;;;1.52;0.90;;;;;;;7.80;100.00;94418.56;5093463;28;24460;-80
2022/01/04 03:54:46;;;;;;;1.60;0.80;;;;;;;7.78;100.00;94412.69;5093519;28;24430;-80
2022/01/04 03:57:13;;;;;;;2.22;1.10;;;;;;;7.79;100.00;94412.59;5092329;28;24480;-79
2022/01/04 03:59:39;;;;;;;1.58;0.90;;;;;;;7.82;100.00;94399.44;5093004;28;24446;-78
2022/01/04 04:02:05;;;;;;;1.27;1.00;;;;;;;7.79;100.00;94397.13;5090799;28;24422;-77
2022/01/04 04:04:33;;;;;;;3.55;0.88;;;;;;;7.77;100.00;94404.13;5090792;28;24430;-78
2022/01/04 04:07:00;;;;;;;1.45;0.80;;;;;;;7.83;100.00;94395.13;5090818;28;20842;-77
2022/01/04 04:09:27;;;;;;;1.10;0.70;;;;;;;7.80;100.00;94390.22;5090940;28;20760;-77
2022/01/04 04:11:53;;;;;;;1.40;0.82;;;;;;;7.78;100.00;94386.91;5090928;28;20810;-78
2022/01/04 04:14:19;;;;;;;1.38;0.73;;;;;;;7.78;100.00;94379.16;5090632;28;21296;-78
2022/01/04 04:16:46;;;;;;;3.25;0.75;;;;;;;7.83;100.00;94361.63;5090528;28;24429;-77
2022/01/04 04:19:12;;;;;;;1.48;0.73;;;;;;;7.75;100.00;94354.47;5095849;28;24457;-78
2022/01/04 04:21:40;;;;;;;2.85;1.00;;;;;;;7.76;100.00;94356.09;5097115;28;24433;-78
2022/01/04 04:24:07;;;;;;;2.15;0.93;;;;;;;7.81;100.00;94348.84;5097508;28;20767;-79
2022/01/04 04:26:33;;;;;;;1.08;0.77;;;;;;;7.75;100.00;94344.97;5098689;28;24414;-78
2022/01/04 04:28:59;;;;;;;0.88;0.80;;;;;;;7.73;100.00;94343.44;5100893;28;20771;-78
2022/01/04 04:31:26;;;;;;;1.67;1.10;;;;;;;7.73;100.00;94335.72;5100515;28;24437;-78
2022/01/04 04:33:52;;;;;;;1.73;1.00;;;;;;;7.77;100.00;94337.13;5100850;28;24426;-78
2022/01/04 04:36:19;;;;;;;1.00;0.88;;;;;;;7.74;100.00;94337.34;5099616;28;24779;-79
2022/01/04 04:38:47;;;;;;;1.63;1.10;;;;;;;7.73;100.00;94340.88;5100133;28;24434;-78
2022/01/04 04:41:13;;;;;;;1.77;0.82;;;;;;;7.77;100.00;94321.66;5100248;28;24492;-78
2022/01/04 04:43:40;;;;;;;1.63;1.10;;;;;;;7.78;100.00;94319.91;5097557;28;24480;-78
2022/01/04 04:46:06;;;;;;;1.80;1.00;;;;;;;7.80;100.00;94315.47;5094215;28;24426;-79
2022/01/04 04:48:33;;;;;;;10.95;1.10;;;;;;;7.75;100.00;94314.06;5094334;28;24414;-77
2022/01/04 04:50:59;;;;;;;1.08;0.98;;;;;;;7.78;100.00;94307.00;5094200;28;24432;-78
2022/01/04 04:53:25;;;;;;;1.30;0.85;;;;;;;7.80;100.00;94298.25;5094453;28;24433;-77
2022/01/04 04:55:53;;;;;;;2.30;0.70;;;;;;;7.79;100.00;94301.75;5094467;28;24454;-78
2022/01/04 04:58:20;;;;;;;1.90;1.17;;;;;;;7.78;100.00;94299.28;5095444;28;20768;-77
2022/01/04 05:00:46;;;;;;;1.25;0.75;;;;;;;7.80;100.00;94292.28;5095353;28;24848;-78
2022/01/04 05:03:13;;;;;;;1.08;0.68;;;;;;;7.81;100.00;94297.28;5094943;28;24779;-78
2022/01/04 05:05:39;;;;;;;0.82;0.60;;;;;;;7.82;100.00;94290.38;5094802;28;24772;-79
2022/01/04 05:08:05;;;;;;;2.80;0.90;;;;;;;7.77;100.00;94290.72;5094658;28;25001;-77
2022/01/04 05:10:32;;;;;;;1.38;0.60;;;;;;;7.81;100.00;94288.75;5094429;28;24418;-77
2022/01/04 05:13:00;;;;;;;1.50;0.60;;;;;;;7.80;100.00;94280.19;5094299;28;20793;-77
2022/01/04 05:15:26;;;;;;;1.60;0.80;;;;;;;7.81;100.00;94271.53;5095017;28;25159;-78
2022/01/04 05:17:53;;;;;;;1.20;0.85;;;;;;;7.86;100.00;94269.44;5094258;28;24452;-78
2022/01/04 05:20:19;;;;;;;0.70;0.45;;;;;;;7.87;100.00;94270.25;5093850;28;24453;-76
2022/01/04 05:22:46;;;;;;;1.05;0.50;;;;;;;7.91;100.00;94266.50;5093698;28;24411;-76
2022/01/04 05:25:12;;;;;;;0.80;0.60;;;;;;;7.89;100.00;94251.13;5093776;28;24418;-76
2022/01/04 05:27:39;;;;;;;0.82;0.60;;;;;;;7.87;100.00;94244.47;5094617;28;24445;-78
2022/01/04 05:30:08;;;;;;;1.00;0.70;;;;;;;7.89;100.00;94234.84;5095997;28;24537;-78
2022/01/04 05:32:34;;;;;;;3.88;0.90;;;;;;;7.91;100.00;94231.22;5095670;28;20811;-79
2022/01/04 05:35:01;;;;;;;0.90;0.55;;;;;;;7.92;100.00;94225.13;5095152;28;24436;-76
2022/01/04 05:37:28;;;;;;;0.70;0.50;;;;;;;7.94;100.00;94206.97;5096940;28;20775;-78
2022/01/04 05:39:54;;;;;;;1.00;0.60;;;;;;;7.91;100.00;94217.53;5097690;28;24858;-78
2022/01/04 05:42:21;;;;;;;1.10;0.70;;;;;;;7.89;100.00;94207.31;5098734;28;20760;-78
2022/01/04 05:44:47;;;;;;;0.90;0.50;;;;;;;7.90;100.00;94208.16;5096860;28;24970;-79
2022/01/04 05:47:15;;;;;;;1.73;0.70;;;;;;;7.86;100.00;94197.25;5095250;28;24483;-77
2022/01/04 05:49:41;;;;;;;1.00;0.70;;;;;;;7.89;100.00;94197.00;5094898;28;24506;-79
2022/01/04 05:52:08;;;;;;;1.63;0.90;;;;;;;7.90;100.00;94190.13;5094927;28;24425;-78
2022/01/04 05:54:34;;;;;;;1.73;0.73;;;;;;;7.92;100.00;94198.53;5099170;28;24843;-79
2022/01/04 05:57:01;;;;;;;2.37;0.80;;;;;;;7.91;100.00;94184.81;5097871;28;24439;-79
2022/01/04 05:59:27;;;;;;;2.58;0.77;;;;;;;7.97;100.00;94184.34;5107325;22;25006;-74
2022/01/04 06:01:54;;;;;;;0.82;0.60;;;;;;;7.94;100.00;94173.47;5092781;28;24433;-74
2022/01/04 06:04:21;;;;;;;1.15;0.55;;;;;;;7.92;100.00;94173.56;5095884;28;20767;-75
2022/01/04 06:06:48;;;;;;;1.47;0.60;;;;;;;7.98;100.00;94165.38;5091960;28;20911;-74
2022/01/04 06:09:21;;;;;;;2.08;0.60;;;;;;;7.93;100.00;94157.16;5092590;28;24425;-74
2022/01/04 06:12:00;;;;;;;0.75;0.60;;;;;;;7.95;100.00;94157.88;5092696;28;20679;-74
2022/01/04 06:17:12;;;;;;;0.75;0.55;;;;;;;8.05;100.00;94150.25;5071801;28;20656;-74
2022/01/04 06:19:40;;;;;;;4.10;0.80;;;;;;;8.06;100.00;94141.56;5071906;28;20830;-74
2022/01/04 06:22:07;;;;;;;0.85;0.47;;;;;;;8.09;100.00;94135.34;5075552;28;20854;-74
2022/01/04 06:24:34;;;;;;;0.98;0.57;;;;;;;8.12;100.00;94137.66;5092128;28;24787;-74
2022/01/04 06:27:00;;;;;;;0.85;0.50;;;;;;;8.12;100.00;94132.50;5091683;28;20759;-74
2022/01/04 06:29:27;;;;;;;0.50;0.40;;;;;;;8.13;100.00;94121.28;5099218;28;25047;-74
2022/01/04 06:31:54;;;;;;;0.77;0.50;;;;;;;8.17;100.00;94131.22;5083272;28;24437;-73
2022/01/04 06:34:20;;;;;;;1.70;0.60;;;;;;;8.13;100.00;94129.81;5100293;28;24433;-73
2022/01/04 06:36:48;;;;;;;2.10;0.60;;;;;;;8.16;100.00;94116.69;5083260;28;24847;-73
2022/01/04 06:39:14;;;;;;;1.00;0.47;;;;;;;8.20;100.00;94123.25;5091439;28;24449;-72
2022/01/04 06:41:41;;;;;;;0.73;0.50;;;;;;;8.24;100.00;94116.88;5091795;28;24442;-72
2022/01/04 06:44:07;;;;;;;0.98;0.77;;;;;;;8.30;100.00;94114.75;5091272;28;24430;-73
2022/01/04 06:46:34;;;;;;;1.00;0.60;;;;;;;8.28;100.00;94114.88;5091031;28;21308;-76
2022/01/04 06:49:01;;;;;;;1.80;0.70;;;;;;;8.30;100.00;94114.75;5091158;28;24429;-75
2022/01/04 06:51:28;;;;;;;1.33;0.60;;;;;;;8.33;100.00;94117.91;5092824;28;24460;-75
2022/01/04 06:53:55;;;;;;;1.25;0.70;;;;;;;8.34;100.00;94110.97;5090037;28;24426;-74
2022/01/04 06:56:23;;;;;;;0.68;0.47;;;;;;;8.36;100.00;94101.38;5086841;28;24830;-74
2022/01/04 06:58:49;;;;;;;1.20;0.60;;;;;;;8.39;100.00;94108.91;5090992;28;24427;-75
2022/01/04 07:01:16;;;;;;;0.90;0.60;;;;;;;8.40;100.00;94098.44;5089758;28;24507;-76
2022/01/04 07:03:42;;;;;;;0.85;0.63;;;;;;;8.38;100.00;94090.03;5091159;28;24568;-77
2022/01/04 07:06:09;;;;;;;0.43;0.30;;;;;;;8.40;100.00;94085.53;5090543;28;24834;-77
2022/01/04 07:08:35;;;;;;;1.20;0.67;;;;;;;8.42;100.00;94095.75;5090789;28;24986;-75
2022/01/04 07:11:03;;;;;;;1.00;0.50;;;;;;;8.43;100.00;94074.16;5085937;28;21171;-74
2022/01/04 07:13:29;;;;;;;0.90;0.60;;;;;;;8.46;100.00;94085.06;5087540;28;20866;-76
2022/01/04 07:15:56;;;;;;;0.93;0.50;;;;;;;8.50;100.00;94083.06;5089344;28;24434;-75
2022/01/04 07:18:22;;;;;;;1.00;0.60;;;;;;;8.52;100.00;94081.16;5086784;28;24511;-75
2022/01/04 07:20:49;;;;;;;1.63;0.70;;;;;;;8.53;100.00;94087.13;5093493;28;20791;-74
2022/01/04 07:23:15;;;;;;;1.10;0.70;;;;;;;8.52;100.00;94083.72;5070854;28;20762;-74
2022/01/04 07:25:42;;;;;;;0.38;0.35;;;;;;;8.53;100.00;94085.38;5079541;28;24483;-74
2022/01/04 07:28:10;;;;;;;1.15;0.50;;;;;;;8.59;100.00;94082.28;5090203;28;24449;-74
2022/01/04 07:30:37;;;;;;;0.80;0.40;;;;;;;8.57;100.00;94079.03;5090335;28;21399;-76
2022/01/04 07:33:03;;;;;;;0.95;0.60;;;;;;;8.60;100.00;94076.19;5087096;28;24859;-75
2022/01/04 07:35:30;;;;;;;1.20;0.40;;;;;;;8.70;100.00;94071.09;5078299;28;20764;-76
2022/01/04 07:37:56;;;;;;;1.30;0.55;;;;;;;8.70;100.00;94064.16;5089804;28;24491;-75
2022/01/04 07:40:23;;;;;;;0.90;0.52;;;;;;;8.73;100.00;94060.50;5090048;28;20807;-75
2022/01/04 07:42:49;;;;;;;0.50;0.30;;;;;;;8.74;100.00;94046.66;5082471;28;20816;-74
2022/01/04 07:45:17;;;;;;;1.70;0.68;;;;;;;8.82;100.00;94041.66;5090121;28;20817;-75
2022/01/04 07:47:44;;;;;;;2.47;0.57;;;;;;;8.90;100.00;94035.88;5090338;28;20812;-76
2022/01/04 07:50:11;;;;;;;0.55;0.38;;;;;;;8.98;100.00;94032.66;5090599;28;24406;-75
2022/01/04 07:52:38;;;;;;;1.30;0.60;;;;;;;9.02;100.00;94021.13;5090141;28;20771;-76
2022/01/04 07:55:06;;;;;;;1.25;0.57;;;;;;;9.08;100.00;94018.00;5089799;28;20775;-75
2022/01/04 07:57:33;;;;;;;1.40;0.70;;;;;;;9.10;100.00;94022.09;5090304;28;20793;-76
2022/01/04 07:59:59;;;;;;;0.93;0.50;;;;;;;9.09;100.00;94025.63;5089928;28;24429;-76
2022/01/04 08:02:27;;;;;;;0.90;0.50;;;;;;;9.12;100.00;94022.81;5090541;28;20754;-76
2022/01/04 08:04:53;;;;;;;1.87;0.50;;;;;;;9.15;100.00;94024.28;5088536;28;20873;-74
2022/01/04 08:07:20;;;;;;;1.23;0.70;;;;;;;9.18;100.00;94029.19;5081546;28;20759;-74
2022/01/04 08:09:46;;;;;;;1.00;0.70;;;;;;;9.28;100.00;94030.06;5091052;28;20846;-75
2022/01/04 08:12:13;;;;;;;1.50;0.68;;;;;;;9.16;100.00;94023.38;5090242;28;20851;-75
2022/01/04 08:14:39;;;;;;;1.27;0.60;;;;;;;9.22;100.00;94007.31;5089615;28;20829;-75
2022/01/04 08:17:06;;;;;;;2.63;1.00;;;;;;;9.21;100.00;94019.41;5081479;28;24987;-75
2022/01/04 08:19:34;;;;;;;4.05;0.80;;;;;;;9.26;100.00;94020.78;5070174;28;21122;-76
2022/01/04 08:22:00;;;;;;;0.80;0.68;;;;;;;9.26;100.00;94019.03;5069838;28;20774;-75
2022/01/04 08:24:27;;;;;;;0.80;0.63;;;;;;;9.29;100.00;94026.50;5085407;28;24564;-74
2022/01/04 08:26:53;;;;;;;1.88;1.10;;;;;;;9.21;100.00;94037.50;5084660;28;24430;-74
2022/01/04 08:29:19;;;;;;;1.02;0.75;;;;;;;9.29;100.00;94031.69;5074927;28;20772;-74
2022/01/04 08:31:46;;;;;;;0.65;0.55;;;;;;;9.34;100.00;94029.50;5079415;28;20761;-76
2022/01/04 08:34:12;;;;;;;1.80;0.80;;;;;;;9.33;100.00;94016.75;5082964;28;21300;-76
2022/01/04 08:36:40;;;;;;;1.02;0.43;;;;;;;9.30;100.00;94004.06;5088586;28;20771;-76
2022/01/04 08:39:08;;;;;;;1.55;0.75;;;;;;;9.34;100.00;94006.25;5089753;28;20808;-75
2022/01/04 08:41:36;;;;;;;1.58;0.80;;;;;;;9.36;100.00;94000.97;5090263;28;20771;-75
2022/01/04 08:44:03;;;;;;;1.13;0.70;;;;;;;9.32;100.00;94008.19;5089660;28;24445;-75
2022/01/04 08:46:29;;;;;;;0.93;0.60;;;;;;;9.40;100.00;93990.25;5085856;28;21315;-74
2022/01/04 08:48:56;;;;;;;1.67;0.80;;;;;;;9.46;100.00;93999.25;5069520;28;24959;-75
2022/01/04 08:51:23;;;;;;;1.60;0.60;;;;;;;9.50;100.00;94008.34;5069892;28;24484;-75
2022/01/04 08:53:50;;;;;;;2.72;0.73;;;;;;;9.55;100.00;94011.34;5086797;28;24426;-76
2022/01/04 08:56:18;;;;;;;2.20;0.88;;;;;;;9.53;100.00;94015.00;5088997;28;24437;-75
2022/01/04 08:58:44;;;;;;;0.70;0.50;;;;;;;9.56;100.00;94020.72;5088163;28;20778;-75
2022/01/04 09:01:11;;;;;;;0.90;0.60;;;;;;;9.51;100.00;94006.59;5089571;28;24453;-74
2022/01/04 09:03:37;;;;;;;1.77;0.93;;;;;;;9.45;100.00;94001.00;5081061;28;24431;-74
2022/01/04 09:06:04;;;;;;;1.55;0.70;;;;;;;9.51;100.00;94006.59;5081917;28;24990;-74
2022/01/04 09:08:31;;;;;;;2.63;0.70;;;;;;;9.42;100.00;94011.59;5089394;28;24434;-74
2022/01/04 09:10:58;;;;;;;2.10;0.90;;;;;;;9.40;100.00;93998.00;5097410;28;24426;-74
2022/01/04 09:13:31;;;;;;;1.75;0.73;;;;;;;9.38;100.00;93991.31;5092690;28;24784;-75
2022/01/04 09:18:46;;;;;;;5.60;0.75;;;;;;;9.38;100.00;93993.91;5072419;28;20791;-74
2022/01/04 09:21:13;;;;;;;1.65;0.90;;;;;;;9.36;100.00;93988.06;5073530;28;20936;-74
2022/01/04 09:23:39;;;;;;;1.20;0.70;;;;;;;9.34;100.00;93979.63;5090255;28;24437;-74
2022/01/04 09:26:08;;;;;;;1.20;0.70;;;;;;;9.34;100.00;93979.63;5086803;28;20778;-74
2022/01/04 09:28:34;;;;;;;1.10;0.70;;;;;;;9.31;100.00;93983.31;5085586;28;20784;-74
2022/01/04 09:31:01;;;;;;;1.70;0.60;;;;;;;9.34;100.00;93983.00;5081972;28;21147;-75
2022/01/04 09:33:28;;;;;;;2.20;0.60;;;;;;;9.29;100.00;93972.28;5086447;28;20766;-74
2022/01/04 09:35:54;;;;;;;1.63;0.60;;;;;;;9.31;100.00;93972.16;5100632;28;24441;-73
2022/01/04 09:38:21;;;;;;;0.88;0.68;;;;;;;9.29;100.00;93985.19;5092816;28;20858;-73
2022/01/04 09:40:49;;;;;;;1.73;0.93;;;;;;;9.26;100.00;93988.03;5090189;28;20873;-73
2022/01/04 09:43:20;;;;;;;1.30;0.80;;;;;;;9.33;100.00;93985.75;5084668;28;20933;-73
2022/01/04 09:45:47;;;;;;;1.90;0.82;;;;;;;9.33;100.00;93985.75;5091733;28;20772;-74
2022/01/04 09:48:14;;;;;;;0.90;0.50;;;;;;;9.29;100.00;93992.94;5093218;28;24437;-74
2022/01/04 09:50:43;;;;;;;0.90;0.68;;;;;;;9.29;100.00;93992.13;5093028;28;21304;-75
2022/01/04 09:53:12;;;;;;;2.40;0.90;;;;;;;9.28;100.00;93985.31;5092640;28;20754;-74
2022/01/04 09:55:42;;;;;;;1.55;0.75;;;;;;;9.31;100.00;93988.47;5092118;28;20790;-75
2022/01/04 09:58:10;;;;;;;2.33;0.80;;;;;;;9.32;100.00;93984.13;5092971;28;20769;-75
2022/01/04 10:00:38;;;;;;;1.83;0.80;;;;;;;9.27;100.00;93968.16;5092211;28;20763;-75
2022/01/04 10:03:14;;;;;;;1.30;0.90;;;;;;;9.24;100.00;93953.78;5081559;28;20882;-75
2022/01/04 10:05:40;;;;;;;1.27;0.98;;;;;;;9.26;100.00;93935.56;5092985;28;20764;-75
2022/01/04 10:08:08;;;;;;;1.10;0.85;;;;;;;9.28;100.00;93949.97;5092561;28;20763;-74
2022/01/04 10:10:36;;;;;;;1.02;0.80;;;;;;;9.26;100.00;93931.19;5090554;28;20824;-74
2022/01/04 10:13:05;;;;;;;1.42;1.00;;;;;;;9.33;100.00;93910.81;5092172;28;24442;-74
2022/01/04 10:15:34;;;;;;;2.47;0.80;;;;;;;9.42;100.00;93903.09;5090558;28;20837;-74
2022/01/04 10:18:17;;;;;;;1.38;0.80;;;;;;;9.49;100.00;93912.88;5096910;28;20779;-75
2022/01/04 10:20:46;;;;;;;1.85;0.85;;;;;;;9.48;100.00;93919.81;5092905;28;20770;-74
2022/01/04 10:23:14;;;;;;;3.50;1.05;;;;;;;9.52;100.00;93922.94;5081819;28;20776;-74
2022/01/04 10:25:41;;;;;;;2.90;1.00;;;;;;;9.63;100.00;93897.78;5080621;28;24475;-74
2022/01/04 10:28:08;;;;;;;1.90;0.80;;;;;;;9.69;100.00;93888.66;5092029;28;20813;-75
2022/01/04 10:30:35;;;;;;;2.72;0.95;;;;;;;9.72;100.00;93878.06;5091500;28;24495;-74
2022/01/04 10:33:05;;;;;;;1.80;0.88;;;;;;;9.77;100.00;93886.22;5091543;28;21545;-74
2022/01/04 10:35:35;;;;;;;1.27;0.95;;;;;;;9.70;100.00;93898.03;5091160;28;21166;-74
2022/01/04 10:38:11;;;;;;;1.60;0.88;;;;;;;9.67;100.00;93900.91;5091379;28;24804;-74
2022/01/04 10:40:37;;;;;;;1.88;1.00;;;;;;;9.69;100.00;93899.81;5090854;28;21247;-75
2022/01/04 10:43:08;;;;;;;2.05;1.00;;;;;;;9.67;100.00;93908.66;5090683;28;24450;-75
2022/01/04 10:45:36;;;;;;;1.77;1.00;;;;;;;9.69;100.00;93911.94;5088155;28;20858;-76
2022/01/04 10:48:29;;;;;;;1.58;0.90;;;;;;;9.66;100.00;93912.19;5091444;28;20820;-75
2022/01/04 10:50:59;;;;;;;2.00;1.30;;;;;;;9.61;100.00;93907.44;5071739;28;21186;-75
2022/01/04 10:53:29;;;;;;;1.83;1.15;;;;;;;9.58;100.00;93884.44;5088151;28;20813;-75
2022/01/04 10:56:00;;;;;;;2.28;1.27;;;;;;;9.58;100.00;93886.22;5088688;28;20749;-75
2022/01/04 10:58:33;;;;;;;2.80;1.27;;;;;;;9.52;100.00;93886.75;5091203;28;20687;-75
2022/01/04 11:01:02;;;;;;;3.67;1.70;;;;;;;9.53;100.00;93902.16;5076823;28;20807;-76
2022/01/04 11:03:33;;;;;;;2.83;1.50;;;;;;;9.41;100.00;93888.50;5090723;28;21068;-73
2022/01/04 11:06:03;;;;;;;3.85;1.20;;;;;;;9.53;100.00;93885.81;5089624;28;20772;-75
2022/01/04 11:08:29;;;;;;;2.17;1.27;;;;;;;9.49;100.00;93890.41;5078636;28;20779;-76
2022/01/04 11:10:56;;;;;;;2.45;1.48;;;;;;;9.45;100.00;93904.56;5082108;28;24445;-76
2022/01/04 11:13:23;;;;;;;2.92;1.80;;;;;;;9.50;100.00;93886.09;5091352;28;20771;-76
2022/01/04 11:15:50;;;;;;;2.80;1.50;;;;;;;9.41;100.00;93908.38;5090085;28;20811;-76
2022/01/04 11:18:17;;;;;;;1.98;1.35;;;;;;;9.33;100.00;93911.63;5090643;28;20771;-75
2022/01/04 11:20:46;;;;;;;2.40;1.15;;;;;;;9.34;100.00;93896.94;5091129;28;20845;-75
2022/01/04 11:23:14;;;;;;;1.98;1.27;;;;;;;9.40;100.00;93892.06;5086886;28;20829;-75
2022/01/04 11:25:44;;;;;;;2.50;1.30;;;;;;;9.33;100.00;93879.81;5090199;28;20768;-75
2022/01/04 11:28:12;;;;;;;1.38;1.10;;;;;;;9.35;100.00;93883.91;5091151;28;20746;-74
2022/01/04 11:30:52;;;;;;;2.10;1.42;;;;;;;9.32;100.00;93885.94;5074342;28;20806;-75
2022/01/04 11:33:23;;;;;;;2.28;1.40;;;;;;;9.28;100.00;93895.72;5076229;28;20857;-75
2022/01/04 11:35:52;;;;;;;2.20;1.30;;;;;;;9.33;100.00;93914.22;5088856;28;20816;-75
2022/01/04 11:38:31;;;;;;;2.65;1.30;;;;;;;9.34;100.00;93891.78;5100545;28;21407;-76
2022/01/04 11:40:58;;;;;;;3.30;1.20;;;;;;;9.29;100.00;93905.09;5111525;28;20745;-76
2022/01/04 11:43:27;;;;;;;1.80;1.23;;;;;;;9.34;100.00;93896.94;5106523;28;24533;-74